sensor_id;sensor_type;location;lat;lon;timestamp;pressure;altitude;pressure_sealevel;temperature;humidity
68948;BME280;55996;49.546;7.400;2024-02-28T00:01:06;98754.50;;;2.68;100.00
68948;BME280;55996;49.546;7.400;2024-02-28T00:03:31;98757.91;;;2.75;100.00
68948;BME280;55996;49.546;7.400;2024-02-28T00:05:58;98727.81;;;2.43;100.00
68948;BME280;55996;49.546;7.400;2024-02-28T00:08:24;98752.78;;;2.53;100.00
68948;BME280;55996;49.546;7.400;2024-02-28T00:10:49;98750.19;;;2.64;100.00
68948;BME280;55996;49.546;7.400;2024-02-28T00:13:15;98751.06;;;2.65;100.00
68948;BME280;55996;49.546;7.400;2024-02-28T00:15:41;98751.06;;;2.69;100.00
68948;BME280;55996;49.546;7.400;2024-02-28T00:18:07;98749.31;;;2.62;100.00
68948;BME280;55996;49.546;7.400;2024-02-28T00:20:32;98743.31;;;2.45;100.00
68948;BME280;55996;49.546;7.400;2024-02-28T00:22:57;98748.44;;;2.49;100.00
68948;BME280;55996;49.546;7.400;2024-02-28T00:25:23;98743.31;;;2.38;100.00
68948;BME280;55996;49.546;7.400;2024-02-28T00:27:48;98750.19;;;2.33;100.00
68948;BME280;55996;49.546;7.400;2024-02-28T00:30:14;98747.59;;;2.35;100.00
68948;BME280;55996;49.546;7.400;2024-02-28T00:32:39;98750.16;;;2.22;100.00
68948;BME280;55996;49.546;7.400;2024-02-28T00:35:04;98760.47;;;2.18;100.00
68948;BME280;55996;49.546;7.400;2024-02-28T00:37:30;98752.72;;;2.08;100.00
68948;BME280;55996;49.546;7.400;2024-02-28T00:39:55;98755.28;;;2.12;100.00
68948;BME280;55996;49.546;7.400;2024-02-28T00:42:21;98761.34;;;2.28;100.00
68948;BME280;55996;49.546;7.400;2024-02-28T00:44:46;98751.00;;;2.21;100.00
68948;BME280;55996;49.546;7.400;2024-02-28T00:47:12;98756.16;;;2.09;100.00
68948;BME280;55996;49.546;7.400;2024-02-28T00:49:37;98751.81;;;1.86;100.00
68948;BME280;55996;49.546;7.400;2024-02-28T00:52:03;98764.69;;;1.96;100.00
68948;BME280;55996;49.546;7.400;2024-02-28T00:54:28;98772.44;;;2.02;100.00
68948;BME280;55996;49.546;7.400;2024-02-28T00:56:54;98773.31;;;2.07;100.00
68948;BME280;55996;49.546;7.400;2024-02-28T00:59:19;98786.22;;;2.02;100.00
68948;BME280;55996;49.546;7.400;2024-02-28T01:01:44;98790.50;;;1.99;100.00
68948;BME280;55996;49.546;7.400;2024-02-28T01:04:10;98787.91;;;1.94;100.00
68948;BME280;55996;49.546;7.400;2024-02-28T01:06:35;98775.81;;;1.74;100.00
68948;BME280;55996;49.546;7.400;2024-02-28T01:09:00;98796.47;;;1.85;100.00
68948;BME280;55996;49.546;7.400;2024-02-28T01:11:26;98785.25;;;1.69;100.00
68948;BME280;55996;49.546;7.400;2024-02-28T01:13:51;98793.88;;;1.77;100.00
68948;BME280;55996;49.546;7.400;2024-02-28T01:16:16;98808.47;;;1.78;100.00
68948;BME280;55996;49.546;7.400;2024-02-28T01:18:42;98788.66;;;1.68;100.00
68948;BME280;55996;49.546;7.400;2024-02-28T01:21:07;98799.91;;;1.86;100.00
68948;BME280;55996;49.546;7.400;2024-02-28T01:23:33;98809.34;;;1.82;100.00
68948;BME280;55996;49.546;7.400;2024-02-28T01:25:58;98808.47;;;1.78;100.00
68948;BME280;55996;49.546;7.400;2024-02-28T01:28:24;98797.25;;;1.66;100.00
68948;BME280;55996;49.546;7.400;2024-02-28T01:30:49;98805.78;;;1.58;100.00
68948;BME280;55996;49.546;7.400;2024-02-28T01:33:14;98800.66;;;1.57;100.00
68948;BME280;55996;49.546;7.400;2024-02-28T01:35:40;98798.09;;;1.63;100.00
68948;BME280;55996;49.546;7.400;2024-02-28T01:38:05;98803.28;;;1.72;100.00
68948;BME280;55996;49.546;7.400;2024-02-28T01:40:31;98778.25;;;1.42;100.00
68948;BME280;55996;49.546;7.400;2024-02-28T01:43:03;98774.78;;;1.40;100.00
68948;BME280;55996;49.546;7.400;2024-02-28T01:45:29;98792.88;;;1.54;100.00
68948;BME280;55996;49.546;7.400;2024-02-28T01:47:54;98790.25;;;1.40;100.00
68948;BME280;55996;49.546;7.400;2024-02-28T01:50:20;98795.38;;;1.37;100.00
68948;BME280;55996;49.546;7.400;2024-02-28T01:52:45;98810.03;;;1.44;100.00
68948;BME280;55996;49.546;7.400;2024-02-28T01:55:10;98800.56;;;1.46;100.00
68948;BME280;55996;49.546;7.400;2024-02-28T01:57:37;98780.78;;;1.36;100.00
68948;BME280;55996;49.546;7.400;2024-02-28T02:00:03;98785.09;;;1.40;100.00
68948;BME280;55996;49.546;7.400;2024-02-28T02:02:29;98785.13;;;1.46;100.00
68948;BME280;55996;49.546;7.400;2024-02-28T02:04:54;98780.75;;;1.33;100.00
68948;BME280;55996;49.546;7.400;2024-02-28T02:07:23;98790.25;;;1.40;100.00
68948;BME280;55996;49.546;7.400;2024-02-28T02:09:48;98790.25;;;1.37;100.00
68948;BME280;55996;49.546;7.400;2024-02-28T02:12:15;98785.06;;;1.32;100.00
68948;BME280;55996;49.546;7.400;2024-02-28T02:14:41;98809.97;;;1.33;100.00
68948;BME280;55996;49.546;7.400;2024-02-28T02:17:06;98802.16;;;1.19;100.00
68948;BME280;55996;49.546;7.400;2024-02-28T02:19:32;98813.34;;;1.27;100.00
68948;BME280;55996;49.546;7.400;2024-02-28T02:21:58;98795.31;;;1.24;100.00
68948;BME280;55996;49.546;7.400;2024-02-28T02:24:24;98800.44;;;1.21;100.00
68948;BME280;55996;49.546;7.400;2024-02-28T02:26:49;98802.84;;;0.95;100.00
68948;BME280;55996;49.546;7.400;2024-02-28T02:29:17;98803.78;;;1.08;100.00
68948;BME280;55996;49.546;7.400;2024-02-28T02:31:42;98786.63;;;1.07;100.00
68948;BME280;55996;49.546;7.400;2024-02-28T02:34:08;98799.41;;;0.99;100.00
68948;BME280;55996;49.546;7.400;2024-02-28T02:36:33;98799.38;;;0.93;100.00
68948;BME280;55996;49.546;7.400;2024-02-28T02:38:59;98797.69;;;0.93;100.00
68948;BME280;55996;49.546;7.400;2024-02-28T02:41:24;98802.00;;;0.99;100.00
68948;BME280;55996;49.546;7.400;2024-02-28T02:43:50;98805.50;;;1.09;100.00
68948;BME280;55996;49.546;7.400;2024-02-28T02:46:15;98795.16;;;1.00;100.00
68948;BME280;55996;49.546;7.400;2024-02-28T02:48:40;98790.09;;;1.15;100.00
68948;BME280;55996;49.546;7.400;2024-02-28T02:51:06;98793.50;;;1.12;100.00
68948;BME280;55996;49.546;7.400;2024-02-28T02:53:31;98786.53;;;0.96;100.00
68948;BME280;55996;49.546;7.400;2024-02-28T02:55:56;98793.47;;;1.08;100.00
68948;BME280;55996;49.546;7.400;2024-02-28T02:58:22;98806.34;;;1.05;100.00
68948;BME280;55996;49.546;7.400;2024-02-28T03:00:47;98817.38;;;0.91;100.00
68948;BME280;55996;49.546;7.400;2024-02-28T03:03:13;98803.47;;;0.69;100.00
68948;BME280;55996;49.546;7.400;2024-02-28T03:05:38;98816.38;;;0.74;100.00
68948;BME280;55996;49.546;7.400;2024-02-28T03:08:03;98816.53;;;0.94;100.00
68948;BME280;55996;49.546;7.400;2024-02-28T03:10:29;98801.06;;;0.88;100.00
68948;BME280;55996;49.546;7.400;2024-02-28T03:12:54;98829.41;;;0.91;100.00
68948;BME280;55996;49.546;7.400;2024-02-28T03:15:20;98816.41;;;0.75;100.00
68948;BME280;55996;49.546;7.400;2024-02-28T03:17:45;98816.31;;;0.64;100.00
68948;BME280;55996;49.546;7.400;2024-02-28T03:20:11;98813.75;;;0.64;100.00
68948;BME280;55996;49.546;7.400;2024-02-28T03:22:39;98815.50;;;0.69;100.00
68948;BME280;55996;49.546;7.400;2024-02-28T03:25:05;98823.28;;;0.75;100.00
68948;BME280;55996;49.546;7.400;2024-02-28T03:27:30;98825.84;;;0.78;100.00
68948;BME280;55996;49.546;7.400;2024-02-28T03:29:55;98831.03;;;0.83;100.00
68948;BME280;55996;49.546;7.400;2024-02-28T03:32:21;98830.03;;;0.65;100.00
68948;BME280;55996;49.546;7.400;2024-02-28T03:34:46;98829.97;;;0.57;100.00
68948;BME280;55996;49.546;7.400;2024-02-28T03:37:11;98834.28;;;0.58;100.00
68948;BME280;55996;49.546;7.400;2024-02-28T03:39:37;98842.84;;;0.57;100.00
68948;BME280;55996;49.546;7.400;2024-02-28T03:42:02;98850.56;;;0.59;100.00
68948;BME280;55996;49.546;7.400;2024-02-28T03:44:28;98851.47;;;0.64;100.00
68948;BME280;55996;49.546;7.400;2024-02-28T03:46:53;98853.03;;;0.48;100.00
68948;BME280;55996;49.546;7.400;2024-02-28T03:49:19;98846.97;;;0.44;100.00
68948;BME280;55996;49.546;7.400;2024-02-28T03:51:44;98860.59;;;0.32;100.00
68948;BME280;55996;49.546;7.400;2024-02-28T03:54:09;98860.53;;;0.31;100.00
68948;BME280;55996;49.546;7.400;2024-02-28T03:56:35;98850.09;;;0.14;100.00
68948;BME280;55996;49.546;7.400;2024-02-28T03:59:00;98874.28;;;0.33;100.00
68948;BME280;55996;49.546;7.400;2024-02-28T04:01:26;98884.72;;;0.45;100.00
68948;BME280;55996;49.546;7.400;2024-02-28T04:03:51;98880.38;;;0.40;100.00
68948;BME280;55996;49.546;7.400;2024-02-28T04:06:16;98884.63;;;0.38;100.00
68948;BME280;55996;49.546;7.400;2024-02-28T04:08:42;98878.44;;;0.20;100.00
68948;BME280;55996;49.546;7.400;2024-02-28T04:11:07;98881.72;;;0.10;100.00
68948;BME280;55996;49.546;7.400;2024-02-28T04:13:32;98886.25;;;0.28;100.00
68948;BME280;55996;49.546;7.400;2024-02-28T04:15:58;98870.75;;;0.25;100.00
68948;BME280;55996;49.546;7.400;2024-02-28T04:18:23;98882.69;;;0.18;100.00
68948;BME280;55996;49.546;7.400;2024-02-28T04:20:48;98886.19;;;0.23;100.00
68948;BME280;55996;49.546;7.400;2024-02-28T04:23:14;98894.81;;;0.28;100.00
68948;BME280;55996;49.546;7.400;2024-02-28T04:25:39;98898.91;;;0.12;100.00
68948;BME280;55996;49.546;7.400;2024-02-28T04:28:06;98886.84;;;0.07;100.00
68948;BME280;55996;49.546;7.400;2024-02-28T04:30:32;98892.81;;;0.04;100.00
68948;BME280;55996;49.546;7.400;2024-02-28T04:32:58;98908.41;;;0.17;100.00
68948;BME280;55996;49.546;7.400;2024-02-28T04:35:23;98911.66;;;0.03;100.00
68948;BME280;55996;49.546;7.400;2024-02-28T04:37:48;98915.88;;;-0.01;100.00
68948;BME280;55996;49.546;7.400;2024-02-28T04:40:14;98912.41;;;-0.04;100.00
68948;BME280;55996;49.546;7.400;2024-02-28T04:42:41;98914.28;;;0.08;100.00
68948;BME280;55996;49.546;7.400;2024-02-28T04:45:06;98906.47;;;0.00;100.00
68948;BME280;55996;49.546;7.400;2024-02-28T04:47:32;98916.09;;;0.15;100.00
68948;BME280;55996;49.546;7.400;2024-02-28T04:49:58;98911.53;;;-0.06;100.00
68948;BME280;55996;49.546;7.400;2024-02-28T04:52:23;98907.94;;;-0.18;100.00
68948;BME280;55996;49.546;7.400;2024-02-28T04:54:50;98904.44;;;-0.26;100.00
68948;BME280;55996;49.546;7.400;2024-02-28T04:57:15;98920.94;;;-0.07;100.00
68948;BME280;55996;49.546;7.400;2024-02-28T04:59:44;98911.34;;;-0.20;100.00
68948;BME280;55996;49.546;7.400;2024-02-28T05:02:10;98907.13;;;-0.15;100.00
68948;BME280;55996;49.546;7.400;2024-02-28T05:04:35;98936.38;;;-0.07;100.00
68948;BME280;55996;49.546;7.400;2024-02-28T05:07:01;98929.31;;;-0.20;100.00
68948;BME280;55996;49.546;7.400;2024-02-28T05:09:26;98937.91;;;-0.18;100.00
68948;BME280;55996;49.546;7.400;2024-02-28T05:11:52;98927.56;;;-0.24;100.00
68948;BME280;55996;49.546;7.400;2024-02-28T05:14:17;98936.94;;;-0.26;100.00
68948;BME280;55996;49.546;7.400;2024-02-28T05:16:42;98942.25;;;-0.15;100.00
68948;BME280;55996;49.546;7.400;2024-02-28T05:19:08;98941.06;;;-0.38;100.00
68948;BME280;55996;49.546;7.400;2024-02-28T05:21:41;98943.78;;;-0.28;100.00
68948;BME280;55996;49.546;7.400;2024-02-28T05:24:06;98942.16;;;-0.20;100.00
68948;BME280;55996;49.546;7.400;2024-02-28T05:26:34;98945.66;;;-0.17;100.00
68948;BME280;55996;49.546;7.400;2024-02-28T05:29:00;98957.59;;;-0.20;100.00
68948;BME280;55996;49.546;7.400;2024-02-28T05:31:26;98954.25;;;-0.16;100.00
68948;BME280;55996;49.546;7.400;2024-02-28T05:33:53;98946.69;;;-0.04;100.00
68948;BME280;55996;49.546;7.400;2024-02-28T05:36:22;98961.78;;;-0.27;100.00
68948;BME280;55996;49.546;7.400;2024-02-28T05:38:48;98952.59;;;-0.09;100.00
68948;BME280;55996;49.546;7.400;2024-02-28T05:41:14;98942.22;;;-0.17;100.00
68948;BME280;55996;49.546;7.400;2024-02-28T05:43:41;98955.09;;;-0.14;100.00
68948;BME280;55996;49.546;7.400;2024-02-28T05:46:06;98968.00;;;-0.11;100.00
68948;BME280;55996;49.546;7.400;2024-02-28T05:48:32;98960.31;;;-0.08;100.00
68948;BME280;55996;49.546;7.400;2024-02-28T05:50:57;98976.66;;;-0.03;100.00
68948;BME280;55996;49.546;7.400;2024-02-28T05:53:23;98967.38;;;0.06;100.00
68948;BME280;55996;49.546;7.400;2024-02-28T05:55:52;98973.31;;;0.00;100.00
68948;BME280;55996;49.546;7.400;2024-02-28T05:58:19;98974.22;;;0.05;100.00
68948;BME280;55996;49.546;7.400;2024-02-28T06:00:44;98979.50;;;0.16;100.00
68948;BME280;55996;49.546;7.400;2024-02-28T06:03:09;98973.44;;;0.12;100.00
68948;BME280;55996;49.546;7.400;2024-02-28T06:05:35;98961.25;;;-0.03;100.00
68948;BME280;55996;49.546;7.400;2024-02-28T06:08:00;98988.09;;;0.18;100.00
68948;BME280;55996;49.546;7.400;2024-02-28T06:10:25;98990.91;;;0.37;100.00
68948;BME280;55996;49.546;7.400;2024-02-28T06:12:51;98991.84;;;0.42;100.00
68948;BME280;55996;49.546;7.400;2024-02-28T06:15:17;98990.00;;;0.33;100.00
68948;BME280;55996;49.546;7.400;2024-02-28T06:17:42;98985.59;;;0.23;100.00
68948;BME280;55996;49.546;7.400;2024-02-28T06:20:08;98986.50;;;0.26;100.00
68948;BME280;55996;49.546;7.400;2024-02-28T06:22:33;98993.38;;;0.27;100.00
68948;BME280;55996;49.546;7.400;2024-02-28T06:24:58;99010.59;;;0.35;100.00
68948;BME280;55996;49.546;7.400;2024-02-28T06:27:24;99011.50;;;0.38;100.00
68948;BME280;55996;49.546;7.400;2024-02-28T06:29:51;99033.91;;;0.47;100.00
68948;BME280;55996;49.546;7.400;2024-02-28T06:32:17;99023.75;;;0.58;100.00
68948;BME280;55996;49.546;7.400;2024-02-28T06:34:42;99019.50;;;0.58;100.00
68948;BME280;55996;49.546;7.400;2024-02-28T06:37:07;99007.44;;;0.54;100.00
68948;BME280;55996;49.546;7.400;2024-02-28T06:39:33;99017.72;;;0.56;100.00
68948;BME280;55996;49.546;7.400;2024-02-28T06:41:58;99028.91;;;0.59;100.00
68948;BME280;55996;49.546;7.400;2024-02-28T06:44:24;99027.22;;;0.60;100.00
68948;BME280;55996;49.546;7.400;2024-02-28T06:46:49;99036.78;;;0.72;100.00
68948;BME280;55996;49.546;7.400;2024-02-28T06:49:14;99044.63;;;0.79;100.00
68948;BME280;55996;49.546;7.400;2024-02-28T06:51:43;99040.28;;;0.77;100.00
68948;BME280;55996;49.546;7.400;2024-02-28T06:54:09;99048.81;;;0.70;100.00
68948;BME280;55996;49.546;7.400;2024-02-28T06:56:35;99055.66;;;0.71;100.00
68948;BME280;55996;49.546;7.400;2024-02-28T06:59:01;99047.16;;;0.78;100.00
68948;BME280;55996;49.546;7.400;2024-02-28T07:01:27;99043.94;;;0.94;100.00
68948;BME280;55996;49.546;7.400;2024-02-28T07:03:52;99042.22;;;0.96;100.00
68948;BME280;55996;49.546;7.400;2024-02-28T07:06:17;99051.81;;;1.07;100.00
68948;BME280;55996;49.546;7.400;2024-02-28T07:08:43;99062.13;;;1.10;100.00
68948;BME280;55996;49.546;7.400;2024-02-28T07:11:15;99056.16;;;1.14;100.00
68948;BME280;55996;49.546;7.400;2024-02-28T07:13:40;99062.31;;;1.25;100.00
68948;BME280;55996;49.546;7.400;2024-02-28T07:16:06;99055.41;;;1.23;100.00
68948;BME280;55996;49.546;7.400;2024-02-28T07:18:32;99061.50;;;1.33;100.00
68948;BME280;55996;49.546;7.400;2024-02-28T07:20:57;99070.09;;;1.32;100.00
68948;BME280;55996;49.546;7.400;2024-02-28T07:23:22;99056.47;;;1.45;100.00
68948;BME280;55996;49.546;7.400;2024-02-28T07:25:48;99068.31;;;1.24;100.00
68948;BME280;55996;49.546;7.400;2024-02-28T07:28:13;99067.66;;;1.44;100.00
68948;BME280;55996;49.546;7.400;2024-02-28T07:30:39;99063.34;;;1.46;100.00
68948;BME280;55996;49.546;7.400;2024-02-28T07:33:07;99077.13;;;1.48;100.00
68948;BME280;55996;49.546;7.400;2024-02-28T07:35:43;99054.78;;;1.47;100.00
68948;BME280;55996;49.546;7.400;2024-02-28T07:38:09;99076.38;;;1.60;100.00
68948;BME280;55996;49.546;7.400;2024-02-28T07:40:34;99075.56;;;1.66;100.00
68948;BME280;55996;49.546;7.400;2024-02-28T07:42:59;99072.22;;;1.74;100.00
68948;BME280;55996;49.546;7.400;2024-02-28T07:45:25;99059.31;;;1.76;100.00
68948;BME280;55996;49.546;7.400;2024-02-28T07:47:50;99062.84;;;1.83;100.00
68948;BME280;55996;49.546;7.400;2024-02-28T07:50:15;99066.25;;;1.82;100.00
68948;BME280;55996;49.546;7.400;2024-02-28T07:52:42;99076.63;;;1.88;100.00
68948;BME280;55996;49.546;7.400;2024-02-28T07:55:08;99080.09;;;1.94;100.00
68948;BME280;55996;49.546;7.400;2024-02-28T07:57:33;99080.19;;;2.02;100.00
68948;BME280;55996;49.546;7.400;2024-02-28T07:59:58;99092.28;;;2.16;100.00
68948;BME280;55996;49.546;7.400;2024-02-28T08:02:24;99079.41;;;2.14;100.00
68948;BME280;55996;49.546;7.400;2024-02-28T08:04:50;99082.06;;;2.26;100.00
68948;BME280;55996;49.546;7.400;2024-02-28T08:07:16;99086.19;;;2.06;100.00
68948;BME280;55996;49.546;7.400;2024-02-28T08:09:41;99076.00;;;2.21;100.00
68948;BME280;55996;49.546;7.400;2024-02-28T08:12:07;99086.19;;;2.03;100.00
68948;BME280;55996;49.546;7.400;2024-02-28T08:14:32;99090.50;;;2.05;100.00
68948;BME280;55996;49.546;7.400;2024-02-28T08:16:57;99090.56;;;2.13;100.00
68948;BME280;55996;49.546;7.400;2024-02-28T08:19:23;99085.56;;;2.33;100.00
68948;BME280;55996;49.546;7.400;2024-02-28T08:21:48;99070.94;;;2.34;100.00
68948;BME280;55996;49.546;7.400;2024-02-28T08:24:14;99076.06;;;2.26;100.00
68948;BME280;55996;49.546;7.400;2024-02-28T08:26:40;99082.88;;;2.16;100.00
68948;BME280;55996;49.546;7.400;2024-02-28T08:29:06;99078.69;;;2.34;100.00
68948;BME280;55996;49.546;7.400;2024-02-28T08:31:31;99080.38;;;2.32;100.00
68948;BME280;55996;49.546;7.400;2024-02-28T08:33:57;99093.44;;;2.52;100.00
68948;BME280;55996;49.546;7.400;2024-02-28T08:36:22;99086.63;;;2.71;100.00
68948;BME280;55996;49.546;7.400;2024-02-28T08:38:47;99081.34;;;2.49;100.00
68948;BME280;55996;49.546;7.400;2024-02-28T08:41:13;99098.47;;;2.38;100.00
68948;BME280;55996;49.546;7.400;2024-02-28T08:43:39;99088.97;;;2.29;100.00
68948;BME280;55996;49.546;7.400;2024-02-28T08:46:05;99095.03;;;2.36;100.00
68948;BME280;55996;49.546;7.400;2024-02-28T08:48:31;99099.50;;;2.65;100.00
68948;BME280;55996;49.546;7.400;2024-02-28T08:50:56;99115.97;;;2.85;100.00
68948;BME280;55996;49.546;7.400;2024-02-28T08:53:21;99120.22;;;2.79;100.00
68948;BME280;55996;49.546;7.400;2024-02-28T08:55:47;99118.50;;;2.78;100.00
68948;BME280;55996;49.546;7.400;2024-02-28T08:58:12;99116.72;;;2.69;100.00
68948;BME280;55996;49.546;7.400;2024-02-28T09:00:37;99127.94;;;2.71;100.00
68948;BME280;55996;49.546;7.400;2024-02-28T09:03:04;99118.50;;;2.78;100.00
68948;BME280;55996;49.546;7.400;2024-02-28T09:05:29;99102.94;;;2.65;100.00
68948;BME280;55996;49.546;7.400;2024-02-28T09:07:55;99129.00;;;3.10;100.00
68948;BME280;55996;49.546;7.400;2024-02-28T09:10:22;99111.72;;;3.00;100.00
68948;BME280;55996;49.546;7.400;2024-02-28T09:12:50;99119.63;;;3.43;100.00
68948;BME280;55996;49.546;7.400;2024-02-28T09:15:15;99120.56;;;3.62;100.00
68948;BME280;55996;49.546;7.400;2024-02-28T09:17:40;99118.81;;;3.58;100.00
68948;BME280;55996;49.546;7.400;2024-02-28T09:20:06;99135.19;;;3.52;100.00
68948;BME280;55996;49.546;7.400;2024-02-28T09:22:33;99125.75;;;3.82;100.00
68948;BME280;55996;49.546;7.400;2024-02-28T09:24:58;99131.81;;;4.00;100.00
68948;BME280;55996;49.546;7.400;2024-02-28T09:27:24;99126.59;;;3.72;100.00
68948;BME280;55996;49.546;7.400;2024-02-28T09:29:50;99131.75;;;3.63;100.00
68948;BME280;55996;49.546;7.400;2024-02-28T09:32:15;99125.72;;;3.64;100.00
68948;BME280;55996;49.546;7.400;2024-02-28T09:34:41;99139.53;;;3.74;100.00
68948;BME280;55996;49.546;7.400;2024-02-28T09:37:06;99118.84;;;3.77;100.00
68948;BME280;55996;49.546;7.400;2024-02-28T09:39:31;99130.06;;;3.86;100.00
68948;BME280;55996;49.546;7.400;2024-02-28T09:41:57;99112.81;;;3.99;100.00
68948;BME280;55996;49.546;7.400;2024-02-28T09:44:23;99135.25;;;4.48;100.00
68948;BME280;55996;49.546;7.400;2024-02-28T09:46:52;99132.66;;;4.45;100.00
68948;BME280;55996;49.546;7.400;2024-02-28T09:49:18;99148.19;;;4.48;100.00
68948;BME280;55996;49.546;7.400;2024-02-28T09:51:44;99137.81;;;4.48;100.00
68948;BME280;55996;49.546;7.400;2024-02-28T09:54:13;99143.84;;;4.75;100.00
68948;BME280;55996;49.546;7.400;2024-02-28T09:56:38;99143.84;;;4.66;100.00
68948;BME280;55996;49.546;7.400;2024-02-28T09:59:03;99156.78;;;4.67;100.00
68948;BME280;55996;49.546;7.400;2024-02-28T10:01:30;99153.28;;;4.82;100.00
68948;BME280;55996;49.546;7.400;2024-02-28T10:03:56;99143.81;;;4.88;100.00
68948;BME280;55996;49.546;7.400;2024-02-28T10:06:22;99148.13;;;4.82;100.00
68948;BME280;55996;49.546;7.400;2024-02-28T10:08:48;99145.47;;;5.01;100.00
68948;BME280;55996;49.546;7.400;2024-02-28T10:11:23;99150.63;;;5.07;100.00
68948;BME280;55996;49.546;7.400;2024-02-28T10:13:49;99140.34;;;4.92;100.00
68948;BME280;55996;49.546;7.400;2024-02-28T10:16:14;99147.25;;;4.91;100.00
68948;BME280;55996;49.546;7.400;2024-02-28T10:18:43;99140.25;;;5.16;100.00
68948;BME280;55996;49.546;7.400;2024-02-28T10:21:09;99144.47;;;5.38;100.00
68948;BME280;55996;49.546;7.400;2024-02-28T10:23:36;99161.69;;;5.57;100.00
68948;BME280;55996;49.546;7.400;2024-02-28T10:26:02;99157.41;;;5.48;100.00
68948;BME280;55996;49.546;7.400;2024-02-28T10:28:28;99151.38;;;5.40;100.00
68948;BME280;55996;49.546;7.400;2024-02-28T10:30:54;99149.59;;;5.53;100.00
68948;BME280;55996;49.546;7.400;2024-02-28T10:33:20;99152.13;;;5.67;100.00
68948;BME280;55996;49.546;7.400;2024-02-28T10:35:46;99153.81;;;5.74;100.00
68948;BME280;55996;49.546;7.400;2024-02-28T10:38:17;99152.91;;;5.75;100.00
68948;BME280;55996;49.546;7.400;2024-02-28T10:40:42;99159.75;;;6.00;100.00
68948;BME280;55996;49.546;7.400;2024-02-28T10:43:09;99146.41;;;6.44;100.00
68948;BME280;55996;49.546;7.400;2024-02-28T10:45:37;99147.34;;;6.39;100.00
68948;BME280;55996;49.546;7.400;2024-02-28T10:48:07;99161.00;;;6.58;100.00
68948;BME280;55996;49.546;7.400;2024-02-28T10:50:33;99159.75;;;6.96;100.00
68948;BME280;55996;49.546;7.400;2024-02-28T10:53:03;99159.78;;;6.93;100.00
68948;BME280;55996;49.546;7.400;2024-02-28T10:55:39;99162.47;;;6.82;100.00
68948;BME280;55996;49.546;7.400;2024-02-28T10:58:09;99176.31;;;6.87;100.00
68948;BME280;55996;49.546;7.400;2024-02-28T11:00:39;99166.56;;;7.08;100.00
68948;BME280;55996;49.546;7.400;2024-02-28T11:03:07;99170.88;;;7.12;100.00
68948;BME280;55996;49.546;7.400;2024-02-28T11:05:40;99177.72;;;7.18;100.00
68948;BME280;55996;49.546;7.400;2024-02-28T11:08:10;99175.78;;;7.37;100.00
68948;BME280;55996;49.546;7.400;2024-02-28T11:10:40;99167.56;;;7.66;100.00
68948;BME280;55996;49.546;7.400;2024-02-28T11:13:07;99161.03;;;8.00;100.00
68948;BME280;55996;49.546;7.400;2024-02-28T11:15:35;99165.72;;;8.34;100.00
68948;BME280;55996;49.546;7.400;2024-02-28T11:18:10;99164.56;;;8.52;100.00
68948;BME280;55996;49.546;7.400;2024-02-28T11:20:36;99158.97;;;8.22;100.00
68948;BME280;55996;49.546;7.400;2024-02-28T11:23:01;99153.63;;;8.83;100.00
68948;BME280;55996;49.546;7.400;2024-02-28T11:25:26;99151.34;;;8.64;100.00
68948;BME280;55996;49.546;7.400;2024-02-28T11:27:52;99159.00;;;8.74;100.00
68948;BME280;55996;49.546;7.400;2024-02-28T11:30:17;99154.16;;;8.52;100.00
68948;BME280;55996;49.546;7.400;2024-02-28T11:32:43;99147.81;;;8.68;100.00
68948;BME280;55996;49.546;7.400;2024-02-28T11:35:09;99145.06;;;8.76;100.00
68948;BME280;55996;49.546;7.400;2024-02-28T11:37:37;99134.47;;;8.84;100.00
68948;BME280;55996;49.546;7.400;2024-02-28T11:40:07;99142.31;;;8.84;100.00
68948;BME280;55996;49.546;7.400;2024-02-28T11:42:34;99145.13;;;8.71;100.00
68948;BME280;55996;49.546;7.400;2024-02-28T11:44:59;99129.53;;;9.15;100.00
68948;BME280;55996;49.546;7.400;2024-02-28T11:47:25;99130.00;;;9.34;100.00
68948;BME280;55996;49.546;7.400;2024-02-28T11:49:51;99148.16;;;9.41;100.00
68948;BME280;55996;49.546;7.400;2024-02-28T11:52:16;99134.47;;;9.70;100.00
68948;BME280;55996;49.546;7.400;2024-02-28T11:54:41;99138.41;;;9.88;100.00
68948;BME280;55996;49.546;7.400;2024-02-28T11:57:07;99133.66;;;9.68;100.00
68948;BME280;55996;49.546;7.400;2024-02-28T11:59:33;99132.31;;;9.06;100.00
68948;BME280;55996;49.546;7.400;2024-02-28T12:01:58;99118.19;;;9.18;100.00
68948;BME280;55996;49.546;7.400;2024-02-28T12:04:24;99123.88;;;9.37;100.00
68948;BME280;55996;49.546;7.400;2024-02-28T12:06:50;99122.22;;;9.74;100.00
68948;BME280;55996;49.546;7.400;2024-02-28T12:09:17;99121.84;;;9.51;100.00
68948;BME280;55996;49.546;7.400;2024-02-28T12:11:43;99126.84;;;9.98;100.00
68948;BME280;55996;49.546;7.400;2024-02-28T12:14:09;99126.88;;;10.36;97.54
68948;BME280;55996;49.546;7.400;2024-02-28T12:16:39;99120.81;;;10.32;100.00
68948;BME280;55996;49.546;7.400;2024-02-28T12:19:09;99113.78;;;10.71;96.59
68948;BME280;55996;49.546;7.400;2024-02-28T12:21:36;99119.66;;;10.46;95.51
68948;BME280;55996;49.546;7.400;2024-02-28T12:24:08;99118.13;;;10.37;87.29
68948;BME280;55996;49.546;7.400;2024-02-28T12:26:37;99101.41;;;10.43;82.53
68948;BME280;55996;49.546;7.400;2024-02-28T12:29:03;99109.78;;;10.57;83.61
68948;BME280;55996;49.546;7.400;2024-02-28T12:31:28;99115.09;;;10.53;83.07
68948;BME280;55996;49.546;7.400;2024-02-28T12:33:54;99104.81;;;10.79;78.13
68948;BME280;55996;49.546;7.400;2024-02-28T12:36:20;99097.44;;;10.94;79.58
68948;BME280;55996;49.546;7.400;2024-02-28T12:38:45;99087.75;;;10.97;76.06
68948;BME280;55996;49.546;7.400;2024-02-28T12:41:11;99076.97;;;11.38;77.08
68948;BME280;55996;49.546;7.400;2024-02-28T12:43:36;99083.50;;;11.82;64.89
68948;BME280;55996;49.546;7.400;2024-02-28T12:46:02;99079.72;;;11.63;62.63
68948;BME280;55996;49.546;7.400;2024-02-28T12:48:27;99067.19;;;11.73;65.52
68948;BME280;55996;49.546;7.400;2024-02-28T12:50:53;99073.63;;;12.18;63.25
68948;BME280;55996;49.546;7.400;2024-02-28T12:53:18;99070.28;;;12.40;58.27